Aérodrome :
LOGIN :

S'inscrire | Disclaimer

   EN    FR    IT 

 










Légende :    VFR   VFR Marginal   IFR   IFR Intensif   IFR Très Intensif
Visi : 
Plafond : 
>= 8 km
>= 3000ft
5 à 8 km
1000 à 3000 ft
1500m à 5 km
500 à 1000 ft
800 à 1500m
200 à 500 ft
< 800m
< 200 ft
Symboles :   Orages  Brouillard  Fortes neiges  Fortes précipitations  Vent > 20 kt
SIGMETs :   Divers  Orages  Givrage  Turbulence  Onde Orograph.  Cendres Volcan.






- Altitude de l'aérodrome : 645 ft
- Code IATA : DLE


LFGJ - Dole Tavaux

DERNIER METAR :
  • 301000Z AUTO 07003KT 010V130 9999 OVC007 10/10 Q1013 BECMG SCT015

METARs EXPIRÉS :
  • 300930Z AUTO 05004KT 020V090 9999 OVC006 09/09 Q1012 BECMG SCT015
  • 300900Z AUTO 02003KT 340V060 9000 OVC003 09/09 Q1012 TEMPO 0800 FG VV///
  • 300830Z AUTO 01005KT 9999 OVC002 08/08 Q1012 BECMG FEW015
  • 300800Z AUTO 36005KT 340V050 1900 R05/1100D BR VV/// 08/08 Q1011 BECMG 9999 NSW BKN008
  • 300730Z AUTO 01006KT 0700 0600 R05/1200D FG VV/// 08/08 Q1011 BECMG 9999 NSW BKN008

TAF AMD TAF LFGJ
Valide du 30 à 09h jusqu'au 30 à 18h UTC


300930Z 3009/3018 36005KT 9999 OVC005
BECMG 3010/3012 SCT015
BECMG 3016/3018 16004KT



MET'MAP, la Météo Aéronautique d'un coup d'oeil ! - Copyright ORBIFLY Décembre 2007 - Disclaimer

ORBIFLY MET'MAP TEAM :

Programmation & Développement : Alexandra Zaïnal
Sur une idée originale de : Baudouin d'Aumeries
Soutien technique & logistique : Manuel Goepfert
Assistance : Marc-Olivier Méhu




SOURCES & CREDITS :

   NOAA